sensor_id;sensor_type;location;lat;lon;timestamp;pressure;altitude;pressure_sealevel;temperature;humidity
59825;BME280;45703;50.898;6.054;2024-02-21T00:01:45;100875.72;;;8.57;100.00
59825;BME280;45703;50.898;6.054;2024-02-21T00:04:10;100870.59;;;8.56;100.00
59825;BME280;45703;50.898;6.054;2024-02-21T00:06:36;100869.16;;;8.54;100.00
59825;BME280;45703;50.898;6.054;2024-02-21T00:09:01;100847.00;;;8.47;100.00
59825;BME280;45703;50.898;6.054;2024-02-21T00:11:28;100850.66;;;8.46;100.00
59825;BME280;45703;50.898;6.054;2024-02-21T00:13:53;100846.09;;;8.40;100.00
59825;BME280;45703;50.898;6.054;2024-02-21T00:16:18;100839.50;;;8.36;100.00
59825;BME280;45703;50.898;6.054;2024-02-21T00:18:45;100833.91;;;8.24;100.00
59825;BME280;45703;50.898;6.054;2024-02-21T00:21:10;100850.03;;;8.23;100.00
59825;BME280;45703;50.898;6.054;2024-02-21T00:23:44;100855.34;;;8.23;100.00
59825;BME280;45703;50.898;6.054;2024-02-21T00:26:11;100858.66;;;8.25;100.00
59825;BME280;45703;50.898;6.054;2024-02-21T00:28:36;100844.94;;;8.21;100.00
59825;BME280;45703;50.898;6.054;2024-02-21T00:31:02;100845.94;;;8.20;100.00
59825;BME280;45703;50.898;6.054;2024-02-21T00:33:27;100858.03;;;8.23;100.00
59825;BME280;45703;50.898;6.054;2024-02-21T00:35:53;100846.13;;;8.19;100.00
59825;BME280;45703;50.898;6.054;2024-02-21T00:38:18;100843.47;;;8.19;100.00
59825;BME280;45703;50.898;6.054;2024-02-21T00:40:43;100836.34;;;8.26;100.00
59825;BME280;45703;50.898;6.054;2024-02-21T00:43:09;100833.06;;;8.24;100.00
59825;BME280;45703;50.898;6.054;2024-02-21T00:45:34;100837.44;;;8.31;100.00
59825;BME280;45703;50.898;6.054;2024-02-21T00:48:00;100832.28;;;8.30;100.00
59825;BME280;45703;50.898;6.054;2024-02-21T00:50:25;100829.47;;;8.31;100.00
59825;BME280;45703;50.898;6.054;2024-02-21T00:52:50;100816.97;;;8.32;100.00
59825;BME280;45703;50.898;6.054;2024-02-21T00:55:16;100824.31;;;8.30;100.00
59825;BME280;45703;50.898;6.054;2024-02-21T00:57:41;100820.63;;;8.31;100.00
59825;BME280;45703;50.898;6.054;2024-02-21T01:00:07;100813.06;;;8.28;100.00
59825;BME280;45703;50.898;6.054;2024-02-21T01:02:33;100807.94;;;8.26;100.00
59825;BME280;45703;50.898;6.054;2024-02-21T01:04:58;100797.06;;;8.21;100.00
59825;BME280;45703;50.898;6.054;2024-02-21T01:07:24;100791.91;;;8.20;100.00
59825;BME280;45703;50.898;6.054;2024-02-21T01:09:49;100797.22;;;8.20;100.00
59825;BME280;45703;50.898;6.054;2024-02-21T01:12:16;100793.56;;;8.21;100.00
59825;BME280;45703;50.898;6.054;2024-02-21T01:14:41;100799.13;;;8.26;100.00
59825;BME280;45703;50.898;6.054;2024-02-21T01:17:07;100789.88;;;8.22;100.00
59825;BME280;45703;50.898;6.054;2024-02-21T01:19:32;100785.78;;;8.19;100.00
59825;BME280;45703;50.898;6.054;2024-02-21T01:21:58;100788.44;;;8.19;100.00
59825;BME280;45703;50.898;6.054;2024-02-21T01:24:23;100793.38;;;8.22;100.00
59825;BME280;45703;50.898;6.054;2024-02-21T01:26:49;100786.59;;;8.20;100.00
59825;BME280;45703;50.898;6.054;2024-02-21T01:29:15;100794.00;;;8.24;100.00
59825;BME280;45703;50.898;6.054;2024-02-21T01:31:40;100778.63;;;8.20;100.00
59825;BME280;45703;50.898;6.054;2024-02-21T01:34:05;100784.19;;;8.25;100.00
59825;BME280;45703;50.898;6.054;2024-02-21T01:36:31;100784.19;;;8.25;100.00
59825;BME280;45703;50.898;6.054;2024-02-21T01:38:56;100775.56;;;8.23;100.00
59825;BME280;45703;50.898;6.054;2024-02-21T01:41:21;100770.63;;;8.20;100.00
59825;BME280;45703;50.898;6.054;2024-02-21T01:43:47;100767.41;;;8.24;100.00
59825;BME280;45703;50.898;6.054;2024-02-21T01:46:12;100764.94;;;8.23;100.00
59825;BME280;45703;50.898;6.054;2024-02-21T01:48:38;100766.56;;;8.24;100.00
59825;BME280;45703;50.898;6.054;2024-02-21T01:51:04;100756.56;;;8.26;100.00
59825;BME280;45703;50.898;6.054;2024-02-21T01:53:32;100752.06;;;8.26;100.00
59825;BME280;45703;50.898;6.054;2024-02-21T01:55:59;100744.91;;;8.27;100.00
59825;BME280;45703;50.898;6.054;2024-02-21T01:58:24;100739.97;;;8.24;100.00
59825;BME280;45703;50.898;6.054;2024-02-21T02:00:50;100733.47;;;8.26;100.00
59825;BME280;45703;50.898;6.054;2024-02-21T02:03:16;100726.09;;;8.28;100.00
59825;BME280;45703;50.898;6.054;2024-02-21T02:05:48;100720.34;;;8.25;100.00
59825;BME280;45703;50.898;6.054;2024-02-21T02:08:17;100730.59;;;8.28;100.00
59825;BME280;45703;50.898;6.054;2024-02-21T02:10:42;100726.09;;;8.28;100.00
59825;BME280;45703;50.898;6.054;2024-02-21T02:13:08;100721.34;;;8.24;100.00
59825;BME280;45703;50.898;6.054;2024-02-21T02:15:41;100723.25;;;8.30;100.00
59825;BME280;45703;50.898;6.054;2024-02-21T02:18:06;100717.91;;;8.30;100.00
59825;BME280;45703;50.898;6.054;2024-02-21T02:20:32;100713.63;;;8.29;100.00
59825;BME280;45703;50.898;6.054;2024-02-21T02:22:59;100717.50;;;8.26;100.00
59825;BME280;45703;50.898;6.054;2024-02-21T02:25:26;100718.53;;;8.25;100.00
59825;BME280;45703;50.898;6.054;2024-02-21T02:27:51;100731.44;;;8.28;100.00
59825;BME280;45703;50.898;6.054;2024-02-21T02:30:17;100732.22;;;8.29;100.00
59825;BME280;45703;50.898;6.054;2024-02-21T02:32:45;100735.91;;;8.28;100.00
59825;BME280;45703;50.898;6.054;2024-02-21T02:35:13;100721.75;;;8.21;100.00
59825;BME280;45703;50.898;6.054;2024-02-21T02:37:39;100729.97;;;8.26;100.00
59825;BME280;45703;50.898;6.054;2024-02-21T02:40:07;100707.25;;;8.23;100.00
59825;BME280;45703;50.898;6.054;2024-02-21T02:42:33;100701.50;;;8.20;100.00
59825;BME280;45703;50.898;6.054;2024-02-21T02:44:58;100694.13;;;8.22;100.00
59825;BME280;45703;50.898;6.054;2024-02-21T02:47:24;100692.69;;;8.19;100.00
59825;BME280;45703;50.898;6.054;2024-02-21T02:49:49;100682.25;;;8.18;100.00
59825;BME280;45703;50.898;6.054;2024-02-21T02:52:17;100680.97;;;8.14;100.00
59825;BME280;45703;50.898;6.054;2024-02-21T02:54:43;100685.88;;;8.17;100.00
59825;BME280;45703;50.898;6.054;2024-02-21T02:57:08;100675.03;;;8.12;100.00
59825;BME280;45703;50.898;6.054;2024-02-21T02:59:34;100677.84;;;8.10;100.00
59825;BME280;45703;50.898;6.054;2024-02-21T03:01:59;100679.72;;;8.10;100.00
59825;BME280;45703;50.898;6.054;2024-02-21T03:04:24;100685.03;;;8.10;100.00
59825;BME280;45703;50.898;6.054;2024-02-21T03:06:50;100668.84;;;8.05;100.00
59825;BME280;45703;50.898;6.054;2024-02-21T03:09:16;100673.56;;;8.09;100.00
59825;BME280;45703;50.898;6.054;2024-02-21T03:11:42;100659.00;;;8.05;100.00
59825;BME280;45703;50.898;6.054;2024-02-21T03:14:09;100661.66;;;8.05;100.00
59825;BME280;45703;50.898;6.054;2024-02-21T03:16:35;100669.25;;;8.08;100.00
59825;BME280;45703;50.898;6.054;2024-02-21T03:19:00;100665.41;;;8.11;100.00
59825;BME280;45703;50.898;6.054;2024-02-21T03:21:26;100661.28;;;8.08;100.00
59825;BME280;45703;50.898;6.054;2024-02-21T03:23:51;100661.72;;;8.12;100.00
59825;BME280;45703;50.898;6.054;2024-02-21T03:26:16;100670.09;;;8.09;100.00
59825;BME280;45703;50.898;6.054;2024-02-21T03:28:43;100672.94;;;8.07;100.00
59825;BME280;45703;50.898;6.054;2024-02-21T03:31:13;100666.22;;;8.11;100.00
59825;BME280;45703;50.898;6.054;2024-02-21T03:33:41;100665.56;;;8.09;100.00
59825;BME280;45703;50.898;6.054;2024-02-21T03:36:13;100665.78;;;8.08;100.00
59825;BME280;45703;50.898;6.054;2024-02-21T03:38:38;100664.78;;;8.09;100.00
59825;BME280;45703;50.898;6.054;2024-02-21T03:41:04;100669.69;;;8.12;100.00
59825;BME280;45703;50.898;6.054;2024-02-21T03:43:29;100654.75;;;8.11;100.00
59825;BME280;45703;50.898;6.054;2024-02-21T03:45:54;100645.78;;;8.12;100.00
59825;BME280;45703;50.898;6.054;2024-02-21T03:48:20;100656.19;;;8.13;100.00
59825;BME280;45703;50.898;6.054;2024-02-21T03:50:45;100642.91;;;8.13;100.00
59825;BME280;45703;50.898;6.054;2024-02-21T03:53:11;100631.84;;;8.10;100.00
59825;BME280;45703;50.898;6.054;2024-02-21T03:55:36;100630.19;;;8.09;100.00
59825;BME280;45703;50.898;6.054;2024-02-21T03:58:01;100634.69;;;8.08;100.00
59825;BME280;45703;50.898;6.054;2024-02-21T04:00:27;100639.22;;;8.14;100.00
59825;BME280;45703;50.898;6.054;2024-02-21T04:02:52;100606.91;;;8.11;100.00
59825;BME280;45703;50.898;6.054;2024-02-21T04:05:17;100612.22;;;8.11;100.00
59825;BME280;45703;50.898;6.054;2024-02-21T04:07:43;100613.22;;;8.10;100.00
59825;BME280;45703;50.898;6.054;2024-02-21T04:10:08;100614.66;;;8.12;100.00
59825;BME280;45703;50.898;6.054;2024-02-21T04:12:34;100619.81;;;8.14;100.00
59825;BME280;45703;50.898;6.054;2024-02-21T04:14:59;100604.88;;;8.13;100.00
59825;BME280;45703;50.898;6.054;2024-02-21T04:17:24;100608.16;;;8.15;100.00
59825;BME280;45703;50.898;6.054;2024-02-21T04:19:50;100609.97;;;8.14;100.00
59825;BME280;45703;50.898;6.054;2024-02-21T04:22:15;100608.94;;;8.15;100.00
59825;BME280;45703;50.898;6.054;2024-02-21T04:24:41;100607.53;;;8.13;100.00
59825;BME280;45703;50.898;6.054;2024-02-21T04:27:06;100597.91;;;8.12;100.00
59825;BME280;45703;50.898;6.054;2024-02-21T04:29:31;100593.78;;;8.09;100.00
59825;BME280;45703;50.898;6.054;2024-02-21T04:31:57;100601.59;;;8.11;100.00
59825;BME280;45703;50.898;6.054;2024-02-21T04:34:23;100595.88;;;8.14;100.00
59825;BME280;45703;50.898;6.054;2024-02-21T04:36:48;100589.53;;;8.15;100.00
59825;BME280;45703;50.898;6.054;2024-02-21T04:39:13;100598.13;;;8.17;100.00
59825;BME280;45703;50.898;6.054;2024-02-21T04:41:39;100592.19;;;8.15;100.00
59825;BME280;45703;50.898;6.054;2024-02-21T04:44:04;100584.84;;;8.17;100.00
59825;BME280;45703;50.898;6.054;2024-02-21T04:46:30;100584.84;;;8.17;100.00
59825;BME280;45703;50.898;6.054;2024-02-21T04:48:55;100579.50;;;8.17;100.00
59825;BME280;45703;50.898;6.054;2024-02-21T04:51:21;100586.88;;;8.15;100.00
59825;BME280;45703;50.898;6.054;2024-02-21T04:53:46;100585.84;;;8.16;100.00
59825;BME280;45703;50.898;6.054;2024-02-21T04:56:12;100590.16;;;8.17;100.00
59825;BME280;45703;50.898;6.054;2024-02-21T04:58:38;100581.56;;;8.15;100.00
59825;BME280;45703;50.898;6.054;2024-02-21T05:01:04;100588.16;;;8.19;100.00
59825;BME280;45703;50.898;6.054;2024-02-21T05:03:30;100587.34;;;8.18;100.00
59825;BME280;45703;50.898;6.054;2024-02-21T05:05:55;100589.41;;;8.23;100.00
59825;BME280;45703;50.898;6.054;2024-02-21T05:08:20;100577.72;;;8.24;100.00
59825;BME280;45703;50.898;6.054;2024-02-21T05:10:46;100577.13;;;8.22;100.00
59825;BME280;45703;50.898;6.054;2024-02-21T05:13:11;100576.72;;;8.25;100.00
59825;BME280;45703;50.898;6.054;2024-02-21T05:15:36;100574.28;;;8.23;100.00
59825;BME280;45703;50.898;6.054;2024-02-21T05:18:02;100575.47;;;8.21;100.00
59825;BME280;45703;50.898;6.054;2024-02-21T05:20:27;100572.41;;;8.24;100.00
59825;BME280;45703;50.898;6.054;2024-02-21T05:22:53;100564.25;;;8.25;100.00
59825;BME280;45703;50.898;6.054;2024-02-21T05:25:18;100559.97;;;8.24;100.00
59825;BME280;45703;50.898;6.054;2024-02-21T05:27:44;100565.06;;;8.26;100.00
59825;BME280;45703;50.898;6.054;2024-02-21T05:30:09;100563.41;;;8.25;100.00
59825;BME280;45703;50.898;6.054;2024-02-21T05:32:35;100561.16;;;8.22;100.00
59825;BME280;45703;50.898;6.054;2024-02-21T05:35:00;100560.53;;;8.20;100.00
59825;BME280;45703;50.898;6.054;2024-02-21T05:37:26;100566.69;;;8.20;100.00
59825;BME280;45703;50.898;6.054;2024-02-21T05:39:51;100553.41;;;8.20;100.00
59825;BME280;45703;50.898;6.054;2024-02-21T05:42:17;100556.06;;;8.27;100.00
59825;BME280;45703;50.898;6.054;2024-02-21T05:44:42;100554.00;;;8.22;100.00
59825;BME280;45703;50.898;6.054;2024-02-21T05:47:07;100548.47;;;8.24;100.00
59825;BME280;45703;50.898;6.054;2024-02-21T05:49:35;100535.19;;;8.17;100.00
59825;BME280;45703;50.898;6.054;2024-02-21T05:52:01;100546.22;;;8.21;100.00
59825;BME280;45703;50.898;6.054;2024-02-21T05:54:26;100536.97;;;8.17;100.00
59825;BME280;45703;50.898;6.054;2024-02-21T05:56:51;100529.84;;;8.17;100.00
59825;BME280;45703;50.898;6.054;2024-02-21T05:59:18;100534.97;;;8.19;100.00
59825;BME280;45703;50.898;6.054;2024-02-21T06:01:43;100532.03;;;8.14;100.00
59825;BME280;45703;50.898;6.054;2024-02-21T06:04:09;100548.47;;;8.17;100.00
59825;BME280;45703;50.898;6.054;2024-02-21T06:06:34;100546.78;;;8.16;100.00
59825;BME280;45703;50.898;6.054;2024-02-21T06:09:00;100542.28;;;8.17;100.00
59825;BME280;45703;50.898;6.054;2024-02-21T06:11:27;100539.19;;;8.13;100.00
59825;BME280;45703;50.898;6.054;2024-02-21T06:13:52;100534.31;;;8.17;100.00
59825;BME280;45703;50.898;6.054;2024-02-21T06:16:18;100538.38;;;8.13;100.00
59825;BME280;45703;50.898;6.054;2024-02-21T06:18:43;100540.66;;;8.16;100.00
59825;BME280;45703;50.898;6.054;2024-02-21T06:21:09;100542.28;;;8.17;100.00
59825;BME280;45703;50.898;6.054;2024-02-21T06:23:36;100537.38;;;8.14;100.00
59825;BME280;45703;50.898;6.054;2024-02-21T06:26:02;100539.81;;;8.15;100.00
59825;BME280;45703;50.898;6.054;2024-02-21T06:28:27;100524.13;;;8.20;100.00
59825;BME280;45703;50.898;6.054;2024-02-21T06:30:53;100521.66;;;8.19;100.00
59825;BME280;45703;50.898;6.054;2024-02-21T06:33:18;100520.66;;;8.20;100.00
59825;BME280;45703;50.898;6.054;2024-02-21T06:35:47;100513.22;;;8.15;100.00
59825;BME280;45703;50.898;6.054;2024-02-21T06:38:13;100512.41;;;8.15;100.00
59825;BME280;45703;50.898;6.054;2024-02-21T06:40:39;100519.84;;;8.19;100.00
59825;BME280;45703;50.898;6.054;2024-02-21T06:43:05;100513.03;;;8.17;100.00
59825;BME280;45703;50.898;6.054;2024-02-21T06:45:30;100501.78;;;8.15;100.00
59825;BME280;45703;50.898;6.054;2024-02-21T06:47:56;100492.56;;;8.11;100.00
59825;BME280;45703;50.898;6.054;2024-02-21T06:50:21;100505.47;;;8.14;100.00
59825;BME280;45703;50.898;6.054;2024-02-21T06:52:47;100507.50;;;8.12;100.00
59825;BME280;45703;50.898;6.054;2024-02-21T06:55:12;100508.59;;;8.17;100.00
59825;BME280;45703;50.898;6.054;2024-02-21T06:57:37;100509.94;;;8.13;100.00
59825;BME280;45703;50.898;6.054;2024-02-21T07:00:03;100504.41;;;8.08;100.00
59825;BME280;45703;50.898;6.054;2024-02-21T07:02:33;100500.94;;;8.08;100.00
59825;BME280;45703;50.898;6.054;2024-02-21T07:04:58;100499.53;;;8.12;100.00
59825;BME280;45703;50.898;6.054;2024-02-21T07:07:24;100506.66;;;8.11;100.00
59825;BME280;45703;50.898;6.054;2024-02-21T07:09:49;100504.63;;;8.07;100.00
59825;BME280;45703;50.898;6.054;2024-02-21T07:12:15;100503.38;;;8.09;100.00
59825;BME280;45703;50.898;6.054;2024-02-21T07:14:40;100507.50;;;8.12;100.00
59825;BME280;45703;50.898;6.054;2024-02-21T07:17:05;100504.63;;;8.13;100.00
59825;BME280;45703;50.898;6.054;2024-02-21T07:19:31;100506.66;;;8.11;100.00
59825;BME280;45703;50.898;6.054;2024-02-21T07:21:56;100506.66;;;8.11;100.00
59825;BME280;45703;50.898;6.054;2024-02-21T07:24:22;100501.56;;;8.10;100.00
59825;BME280;45703;50.898;6.054;2024-02-21T07:26:48;100509.53;;;8.10;100.00
59825;BME280;45703;50.898;6.054;2024-02-21T07:29:13;100500.13;;;8.14;100.00
59825;BME280;45703;50.898;6.054;2024-02-21T07:31:41;100508.75;;;8.16;100.00
59825;BME280;45703;50.898;6.054;2024-02-21T07:34:07;100488.88;;;8.12;100.00
59825;BME280;45703;50.898;6.054;2024-02-21T07:36:33;100485.00;;;8.14;100.00
59825;BME280;45703;50.898;6.054;2024-02-21T07:38:58;100490.13;;;8.16;100.00
59825;BME280;45703;50.898;6.054;2024-02-21T07:41:25;100491.75;;;8.17;100.00
59825;BME280;45703;50.898;6.054;2024-02-21T07:43:50;100477.84;;;8.15;100.00
59825;BME280;45703;50.898;6.054;2024-02-21T07:46:15;100474.41;;;8.21;100.00
59825;BME280;45703;50.898;6.054;2024-02-21T07:48:41;100472.78;;;8.20;100.00
59825;BME280;45703;50.898;6.054;2024-02-21T07:51:06;100484.25;;;8.20;100.00
59825;BME280;45703;50.898;6.054;2024-02-21T07:53:34;100461.88;;;8.15;100.00
59825;BME280;45703;50.898;6.054;2024-02-21T07:56:00;100467.06;;;8.23;100.00
59825;BME280;45703;50.898;6.054;2024-02-21T07:58:25;100458.91;;;8.24;100.00
59825;BME280;45703;50.898;6.054;2024-02-21T08:00:50;100453.97;;;8.21;100.00
59825;BME280;45703;50.898;6.054;2024-02-21T08:03:16;100453.34;;;8.26;100.00
59825;BME280;45703;50.898;6.054;2024-02-21T08:05:43;100459.28;;;8.28;100.00
59825;BME280;45703;50.898;6.054;2024-02-21T08:08:08;100454.41;;;8.31;100.00
59825;BME280;45703;50.898;6.054;2024-02-21T08:10:34;100449.47;;;8.35;100.00
59825;BME280;45703;50.898;6.054;2024-02-21T08:12:59;100443.13;;;8.36;100.00
59825;BME280;45703;50.898;6.054;2024-02-21T08:15:24;100429.44;;;8.39;100.00
59825;BME280;45703;50.898;6.054;2024-02-21T08:17:53;100420.69;;;8.45;100.00
59825;BME280;45703;50.898;6.054;2024-02-21T08:20:24;100409.41;;;8.49;100.00
59825;BME280;45703;50.898;6.054;2024-02-21T08:22:49;100409.84;;;8.53;100.00
59825;BME280;45703;50.898;6.054;2024-02-21T08:25:14;100396.72;;;8.51;100.00
59825;BME280;45703;50.898;6.054;2024-02-21T08:27:40;100402.06;;;8.57;100.00
59825;BME280;45703;50.898;6.054;2024-02-21T08:30:06;100384.44;;;8.63;100.00
59825;BME280;45703;50.898;6.054;2024-02-21T08:32:32;100384.00;;;8.66;100.00
59825;BME280;45703;50.898;6.054;2024-02-21T08:34:59;100379.53;;;8.66;100.00
59825;BME280;45703;50.898;6.054;2024-02-21T08:37:27;100377.25;;;8.76;100.00
59825;BME280;45703;50.898;6.054;2024-02-21T08:39:52;100373.78;;;8.82;100.00
59825;BME280;45703;50.898;6.054;2024-02-21T08:42:17;100362.28;;;8.88;100.00
59825;BME280;45703;50.898;6.054;2024-02-21T08:44:44;100360.47;;;8.95;100.00
59825;BME280;45703;50.898;6.054;2024-02-21T08:47:09;100350.00;;;9.00;100.00
59825;BME280;45703;50.898;6.054;2024-02-21T08:49:35;100352.25;;;9.03;100.00
59825;BME280;45703;50.898;6.054;2024-02-21T08:52:01;100337.91;;;9.04;100.00
59825;BME280;45703;50.898;6.054;2024-02-21T08:54:27;100327.44;;;9.09;100.00
59825;BME280;45703;50.898;6.054;2024-02-21T08:56:54;100333.56;;;9.16;100.00
59825;BME280;45703;50.898;6.054;2024-02-21T08:59:19;100331.50;;;9.25;100.00
59825;BME280;45703;50.898;6.054;2024-02-21T09:01:45;100316.09;;;9.33;100.00
59825;BME280;45703;50.898;6.054;2024-02-21T09:04:11;100321.16;;;9.41;100.00
59825;BME280;45703;50.898;6.054;2024-02-21T09:06:36;100311.69;;;9.52;100.00
59825;BME280;45703;50.898;6.054;2024-02-21T09:09:04;100312.47;;;9.65;100.00
59825;BME280;45703;50.898;6.054;2024-02-21T09:11:30;100300.50;;;9.74;100.00
59825;BME280;45703;50.898;6.054;2024-02-21T09:13:55;100288.56;;;9.83;100.00
59825;BME280;45703;50.898;6.054;2024-02-21T09:16:21;100292.59;;;9.92;100.00
59825;BME280;45703;50.898;6.054;2024-02-21T09:18:47;100282.13;;;9.97;100.00
59825;BME280;45703;50.898;6.054;2024-02-21T09:21:13;100287.81;;;10.07;100.00
59825;BME280;45703;50.898;6.054;2024-02-21T09:23:38;100275.69;;;10.11;100.00
59825;BME280;45703;50.898;6.054;2024-02-21T09:26:03;100282.38;;;10.20;100.00
59825;BME280;45703;50.898;6.054;2024-02-21T09:28:30;100275.56;;;10.24;100.00
59825;BME280;45703;50.898;6.054;2024-02-21T09:30:55;100268.16;;;10.26;100.00
59825;BME280;45703;50.898;6.054;2024-02-21T09:33:20;100274.25;;;10.33;100.00
59825;BME280;45703;50.898;6.054;2024-02-21T09:35:46;100273.38;;;10.39;100.00
59825;BME280;45703;50.898;6.054;2024-02-21T09:38:12;100276.28;;;10.37;100.00
59825;BME280;45703;50.898;6.054;2024-02-21T09:40:38;100266.41;;;10.38;100.00
59825;BME280;45703;50.898;6.054;2024-02-21T09:43:04;100262.69;;;10.39;100.00
59825;BME280;45703;50.898;6.054;2024-02-21T09:45:33;100268.78;;;10.46;100.00
59825;BME280;45703;50.898;6.054;2024-02-21T09:50:43;100264.28;;;10.46;100.00
59825;BME280;45703;50.898;6.054;2024-02-21T09:53:09;100268.00;;;10.45;100.00
59825;BME280;45703;50.898;6.054;2024-02-21T09:55:37;100261.41;;;10.48;100.00
59825;BME280;45703;50.898;6.054;2024-02-21T09:58:05;100256.06;;;10.48;100.00
59825;BME280;45703;50.898;6.054;2024-02-21T10:00:30;100250.72;;;10.48;100.00
59825;BME280;45703;50.898;6.054;2024-02-21T10:02:56;100256.44;;;10.51;100.00
59825;BME280;45703;50.898;6.054;2024-02-21T10:05:21;100250.50;;;10.49;100.00
59825;BME280;45703;50.898;6.054;2024-02-21T10:07:48;100251.69;;;10.53;100.00
59825;BME280;45703;50.898;6.054;2024-02-21T10:10:14;100245.56;;;10.53;100.00
59825;BME280;45703;50.898;6.054;2024-02-21T10:12:51;100244.50;;;10.54;100.00
59825;BME280;45703;50.898;6.054;2024-02-21T10:15:23;100231.53;;;10.57;100.00
59825;BME280;45703;50.898;6.054;2024-02-21T10:18:00;100230.47;;;10.58;100.00
59825;BME280;45703;50.898;6.054;2024-02-21T10:20:26;100219.00;;;10.58;100.00
59825;BME280;45703;50.898;6.054;2024-02-21T10:23:05;100214.16;;;10.66;100.00
59825;BME280;45703;50.898;6.054;2024-02-21T10:25:36;100217.81;;;10.72;100.00
59825;BME280;45703;50.898;6.054;2024-02-21T10:28:12;100207.28;;;10.77;100.00
59825;BME280;45703;50.898;6.054;2024-02-21T10:30:37;100198.97;;;10.85;100.00
59825;BME280;45703;50.898;6.054;2024-02-21T10:33:05;100174.47;;;10.88;100.00
59825;BME280;45703;50.898;6.054;2024-02-21T10:35:32;100161.06;;;10.94;100.00
59825;BME280;45703;50.898;6.054;2024-02-21T10:37:58;100163.34;;;11.09;100.00
59825;BME280;45703;50.898;6.054;2024-02-21T10:40:28;100161.06;;;11.24;100.00
59825;BME280;45703;50.898;6.054;2024-02-21T10:42:59;100163.31;;;11.38;100.00
59825;BME280;45703;50.898;6.054;2024-02-21T10:45:33;100156.16;;;11.50;100.00
59825;BME280;45703;50.898;6.054;2024-02-21T10:48:12;100142.38;;;11.64;100.00
59825;BME280;45703;50.898;6.054;2024-02-21T10:50:57;100143.44;;;11.75;100.00
59825;BME280;45703;50.898;6.054;2024-02-21T10:56:33;100118.09;;;11.89;100.00
59825;BME280;45703;50.898;6.054;2024-02-21T10:59:07;100104.59;;;11.95;100.00
59825;BME280;45703;50.898;6.054;2024-02-21T11:01:33;100102.38;;;11.92;100.00
59825;BME280;45703;50.898;6.054;2024-02-21T11:04:10;100090.88;;;12.03;100.00
59825;BME280;45703;50.898;6.054;2024-02-21T11:06:38;100087.50;;;12.08;100.00
59825;BME280;45703;50.898;6.054;2024-02-21T11:09:06;100062.47;;;12.14;100.00
59825;BME280;45703;50.898;6.054;2024-02-21T11:11:35;100066.88;;;12.20;100.00
59825;BME280;45703;50.898;6.054;2024-02-21T11:14:09;100047.44;;;12.24;100.00
59825;BME280;45703;50.898;6.054;2024-02-21T11:16:41;100042.09;;;12.24;100.00
59825;BME280;45703;50.898;6.054;2024-02-21T11:21:45;100003.09;;;12.28;100.00
59825;BME280;45703;50.898;6.054;2024-02-21T11:24:10;99990.16;;;12.37;100.00
59825;BME280;45703;50.898;6.054;2024-02-21T11:26:40;99972.69;;;12.34;100.00
59825;BME280;45703;50.898;6.054;2024-02-21T11:29:07;99977.56;;;12.37;100.00
59825;BME280;45703;50.898;6.054;2024-02-21T11:31:42;99979.19;;;12.38;100.00
59825;BME280;45703;50.898;6.054;2024-02-21T11:34:11;99991.53;;;12.39;100.00
59825;BME280;45703;50.898;6.054;2024-02-21T11:36:50;99989.09;;;12.38;100.00
59825;BME280;45703;50.898;6.054;2024-02-21T11:39:24;99980.16;;;12.32;100.00
59825;BME280;45703;50.898;6.054;2024-02-21T11:42:05;99980.97;;;12.33;100.00
59825;BME280;45703;50.898;6.054;2024-02-21T11:44:33;99990.63;;;12.34;100.00
59825;BME280;45703;50.898;6.054;2024-02-21T11:46:59;99980.34;;;12.42;100.00
59825;BME280;45703;50.898;6.054;2024-02-21T11:49:25;99985.78;;;12.47;100.00
59825;BME280;45703;50.898;6.054;2024-02-21T11:52:01;99973.66;;;12.56;100.00
59825;BME280;45703;50.898;6.054;2024-02-21T11:54:29;99955.56;;;12.63;100.00
59825;BME280;45703;50.898;6.054;2024-02-21T11:56:54;99961.69;;;12.75;100.00
59825;BME280;45703;50.898;6.054;2024-02-21T11:59:20;99968.25;;;12.84;100.00
59825;BME280;45703;50.898;6.054;2024-02-21T12:01:46;99971.84;;;12.90;100.00
59825;BME280;45703;50.898;6.054;2024-02-21T12:04:12;99970.56;;;12.92;100.00
59825;BME280;45703;50.898;6.054;2024-02-21T12:06:38;99966.19;;;13.02;100.00
59825;BME280;45703;50.898;6.054;2024-02-21T12:09:07;99962.72;;;13.02;100.00
59825;BME280;45703;50.898;6.054;2024-02-21T12:11:34;99949.69;;;12.94;100.00
59825;BME280;45703;50.898;6.054;2024-02-21T12:14:00;99947.44;;;13.02;100.00
59825;BME280;45703;50.898;6.054;2024-02-21T12:16:30;99921.53;;;13.08;100.00
59825;BME280;45703;50.898;6.054;2024-02-21T12:18:57;99920.97;;;13.06;100.00
59825;BME280;45703;50.898;6.054;2024-02-21T12:21:32;99918.19;;;13.17;100.00
59825;BME280;45703;50.898;6.054;2024-02-21T12:24:00;99909.50;;;13.27;100.00
59825;BME280;45703;50.898;6.054;2024-02-21T12:26:25;99902.00;;;13.29;100.00
59825;BME280;45703;50.898;6.054;2024-02-21T12:28:53;99911.44;;;13.31;100.00
59825;BME280;45703;50.898;6.054;2024-02-21T12:31:18;99901.38;;;13.22;100.00
59825;BME280;45703;50.898;6.054;2024-02-21T12:33:44;99898.78;;;13.10;100.00
59825;BME280;45703;50.898;6.054;2024-02-21T12:36:09;99889.13;;;13.09;100.00
59825;BME280;45703;50.898;6.054;2024-02-21T12:38:35;99886.28;;;13.16;100.00
59825;BME280;45703;50.898;6.054;2024-02-21T12:41:01;99873.47;;;13.01;100.00
59825;BME280;45703;50.898;6.054;2024-02-21T12:43:26;99859.00;;;13.02;100.00
59825;BME280;45703;50.898;6.054;2024-02-21T12:45:52;99852.34;;;13.05;100.00
59825;BME280;45703;50.898;6.054;2024-02-21T12:48:18;99851.31;;;13.06;100.00
59825;BME280;45703;50.898;6.054;2024-02-21T12:50:50;99833.50;;;13.00;100.00
59825;BME280;45703;50.898;6.054;2024-02-21T12:53:21;99825.69;;;13.15;100.00